Faro, Canada
Current Conditions -  °F | °C
As of 11:00 AM on Tuesday 21 Oct 2014 (Local Time) from CYXY Reporting Station
Broken Clouds Broken Clouds  
Wind Chill: 30°   Ceiling: 21000
Heat Index: 30°   Visibility: 40mi
Dew Point: 28°   Wind: 0mph
Humidity: 93%   Direction: NA
Pressure: 29.36"   Gusts: NA
Location:  62.19°N, 133.37°W
Report Text: CYXY 211800Z 00000KT 40SM FEW005 FEW190 BKN210 M01/M02 A2936 RMK SF1AC1CI6 SF TR SLP976
Loading
Personal Weather Stations






























Interactive Weather Map
Tropical Storm Tracking
New forecast layout! Learn more

10-Day Weather Forecast

Advertisements
Track Severe Weather on mobile